sensor_id;sensor_type;location;lat;lon;timestamp;temperature;humidity
20174;DHT22;10246;50.620;7.232;2024-02-23T00:01:50;8.60;1.00
20174;DHT22;10246;50.620;7.232;2024-02-23T00:04:17;8.50;1.00
20174;DHT22;10246;50.620;7.232;2024-02-23T00:06:45;8.10;1.00
20174;DHT22;10246;50.620;7.232;2024-02-23T00:09:12;7.60;1.00
20174;DHT22;10246;50.620;7.232;2024-02-23T00:11:40;7.40;2.00
20174;DHT22;10246;50.620;7.232;2024-02-23T00:14:10;7.20;2.60
20174;DHT22;10246;50.620;7.232;2024-02-23T00:16:38;7.20;3.30
20174;DHT22;10246;50.620;7.232;2024-02-23T00:19:06;7.20;2.20
20174;DHT22;10246;50.620;7.232;2024-02-23T00:21:33;7.20;1.70
20174;DHT22;10246;50.620;7.232;2024-02-23T00:24:00;7.20;1.80
20174;DHT22;10246;50.620;7.232;2024-02-23T00:26:27;7.20;1.60
20174;DHT22;10246;50.620;7.232;2024-02-23T00:28:56;7.20;1.20
20174;DHT22;10246;50.620;7.232;2024-02-23T00:31:23;7.10;1.00
20174;DHT22;10246;50.620;7.232;2024-02-23T00:33:49;7.20;1.00
20174;DHT22;10246;50.620;7.232;2024-02-23T00:36:16;7.10;1.00
20174;DHT22;10246;50.620;7.232;2024-02-23T00:38:43;7.20;1.00
20174;DHT22;10246;50.620;7.232;2024-02-23T00:41:09;7.20;1.00
20174;DHT22;10246;50.620;7.232;2024-02-23T00:43:39;7.20;1.00
20174;DHT22;10246;50.620;7.232;2024-02-23T00:46:08;7.20;1.00
20174;DHT22;10246;50.620;7.232;2024-02-23T00:48:35;7.20;1.00
20174;DHT22;10246;50.620;7.232;2024-02-23T00:51:02;7.20;1.00
20174;DHT22;10246;50.620;7.232;2024-02-23T00:53:30;7.10;1.00
20174;DHT22;10246;50.620;7.232;2024-02-23T00:55:57;7.10;1.00
20174;DHT22;10246;50.620;7.232;2024-02-23T00:58:23;7.10;1.00
20174;DHT22;10246;50.620;7.232;2024-02-23T01:00:51;7.10;1.00
20174;DHT22;10246;50.620;7.232;2024-02-23T01:03:19;7.10;1.00
20174;DHT22;10246;50.620;7.232;2024-02-23T01:05:46;7.10;1.00
20174;DHT22;10246;50.620;7.232;2024-02-23T01:08:13;7.00;1.00
20174;DHT22;10246;50.620;7.232;2024-02-23T01:10:39;7.00;1.00
20174;DHT22;10246;50.620;7.232;2024-02-23T01:13:06;7.00;1.00
20174;DHT22;10246;50.620;7.232;2024-02-23T01:15:33;7.00;1.00
20174;DHT22;10246;50.620;7.232;2024-02-23T01:17:59;7.00;1.00
20174;DHT22;10246;50.620;7.232;2024-02-23T01:20:27;7.00;1.00
20174;DHT22;10246;50.620;7.232;2024-02-23T01:22:54;7.00;1.00
20174;DHT22;10246;50.620;7.232;2024-02-23T01:25:21;6.90;1.00
20174;DHT22;10246;50.620;7.232;2024-02-23T01:27:47;7.00;1.00
20174;DHT22;10246;50.620;7.232;2024-02-23T01:30:14;6.90;1.00
20174;DHT22;10246;50.620;7.232;2024-02-23T01:32:41;6.90;1.00
20174;DHT22;10246;50.620;7.232;2024-02-23T01:35:08;6.90;1.00
20174;DHT22;10246;50.620;7.232;2024-02-23T01:37:36;6.90;1.00
20174;DHT22;10246;50.620;7.232;2024-02-23T01:40:04;6.80;1.00
20174;DHT22;10246;50.620;7.232;2024-02-23T01:42:31;6.80;1.00
20174;DHT22;10246;50.620;7.232;2024-02-23T01:44:58;6.80;1.00
20174;DHT22;10246;50.620;7.232;2024-02-23T01:47:27;6.80;1.00
20174;DHT22;10246;50.620;7.232;2024-02-23T01:49:56;6.80;1.00
20174;DHT22;10246;50.620;7.232;2024-02-23T01:52:23;6.80;1.00
20174;DHT22;10246;50.620;7.232;2024-02-23T01:54:52;6.70;1.00
20174;DHT22;10246;50.620;7.232;2024-02-23T01:57:21;6.80;1.00
20174;DHT22;10246;50.620;7.232;2024-02-23T01:59:48;6.80;1.00
20174;DHT22;10246;50.620;7.232;2024-02-23T02:02:15;6.80;1.00
20174;DHT22;10246;50.620;7.232;2024-02-23T02:04:42;6.80;1.00
20174;DHT22;10246;50.620;7.232;2024-02-23T02:07:09;6.80;1.00
20174;DHT22;10246;50.620;7.232;2024-02-23T02:09:36;6.80;1.00
20174;DHT22;10246;50.620;7.232;2024-02-23T02:12:04;6.80;1.00
20174;DHT22;10246;50.620;7.232;2024-02-23T02:14:31;6.80;1.00
20174;DHT22;10246;50.620;7.232;2024-02-23T02:16:59;6.70;1.00
20174;DHT22;10246;50.620;7.232;2024-02-23T02:19:25;6.80;1.00
20174;DHT22;10246;50.620;7.232;2024-02-23T02:21:52;6.80;1.00
20174;DHT22;10246;50.620;7.232;2024-02-23T02:24:19;6.80;1.00
20174;DHT22;10246;50.620;7.232;2024-02-23T02:26:46;6.80;1.00
20174;DHT22;10246;50.620;7.232;2024-02-23T02:29:17;6.80;1.00
20174;DHT22;10246;50.620;7.232;2024-02-23T02:31:43;6.80;1.00
20174;DHT22;10246;50.620;7.232;2024-02-23T02:34:10;6.80;1.00
20174;DHT22;10246;50.620;7.232;2024-02-23T02:36:38;6.80;1.00
20174;DHT22;10246;50.620;7.232;2024-02-23T02:39:05;6.80;1.00
20174;DHT22;10246;50.620;7.232;2024-02-23T02:41:32;6.80;1.00
20174;DHT22;10246;50.620;7.232;2024-02-23T02:43:59;6.70;1.00
20174;DHT22;10246;50.620;7.232;2024-02-23T02:46:27;6.70;1.00
20174;DHT22;10246;50.620;7.232;2024-02-23T02:48:54;6.70;1.00
20174;DHT22;10246;50.620;7.232;2024-02-23T02:51:20;6.70;1.00
20174;DHT22;10246;50.620;7.232;2024-02-23T02:53:47;6.70;1.00
20174;DHT22;10246;50.620;7.232;2024-02-23T02:56:14;6.70;1.00
20174;DHT22;10246;50.620;7.232;2024-02-23T02:58:40;6.70;1.00
20174;DHT22;10246;50.620;7.232;2024-02-23T03:01:07;6.70;1.00
20174;DHT22;10246;50.620;7.232;2024-02-23T03:03:36;6.70;1.00
20174;DHT22;10246;50.620;7.232;2024-02-23T03:06:03;6.70;1.00
20174;DHT22;10246;50.620;7.232;2024-02-23T03:08:31;6.80;1.00
20174;DHT22;10246;50.620;7.232;2024-02-23T03:10:58;6.80;1.00
20174;DHT22;10246;50.620;7.232;2024-02-23T03:13:24;6.70;1.00
20174;DHT22;10246;50.620;7.232;2024-02-23T03:15:51;6.80;1.00
20174;DHT22;10246;50.620;7.232;2024-02-23T03:18:18;6.80;1.00
20174;DHT22;10246;50.620;7.232;2024-02-23T03:20:46;6.70;1.00
20174;DHT22;10246;50.620;7.232;2024-02-23T03:23:12;6.80;1.00
20174;DHT22;10246;50.620;7.232;2024-02-23T03:25:39;6.80;1.00
20174;DHT22;10246;50.620;7.232;2024-02-23T03:28:06;6.70;1.00
20174;DHT22;10246;50.620;7.232;2024-02-23T03:30:32;6.80;1.00
20174;DHT22;10246;50.620;7.232;2024-02-23T03:32:59;6.80;1.00
20174;DHT22;10246;50.620;7.232;2024-02-23T03:35:26;6.90;1.00
20174;DHT22;10246;50.620;7.232;2024-02-23T03:37:54;6.90;1.00
20174;DHT22;10246;50.620;7.232;2024-02-23T03:40:20;6.90;1.00
20174;DHT22;10246;50.620;7.232;2024-02-23T03:42:47;6.90;1.00
20174;DHT22;10246;50.620;7.232;2024-02-23T03:45:14;6.90;1.00
20174;DHT22;10246;50.620;7.232;2024-02-23T03:47:40;6.90;1.00
20174;DHT22;10246;50.620;7.232;2024-02-23T03:50:08;6.80;1.00
20174;DHT22;10246;50.620;7.232;2024-02-23T03:52:34;6.80;1.00
20174;DHT22;10246;50.620;7.232;2024-02-23T03:55:04;6.70;1.00
20174;DHT22;10246;50.620;7.232;2024-02-23T03:57:31;6.70;1.00
20174;DHT22;10246;50.620;7.232;2024-02-23T03:59:58;6.80;1.00
20174;DHT22;10246;50.620;7.232;2024-02-23T04:02:25;6.70;1.00
20174;DHT22;10246;50.620;7.232;2024-02-23T04:04:52;6.70;1.00
20174;DHT22;10246;50.620;7.232;2024-02-23T04:07:19;6.70;1.00
20174;DHT22;10246;50.620;7.232;2024-02-23T04:09:46;6.70;1.00
20174;DHT22;10246;50.620;7.232;2024-02-23T04:12:19;6.70;1.00
20174;DHT22;10246;50.620;7.232;2024-02-23T04:14:45;6.70;1.00
20174;DHT22;10246;50.620;7.232;2024-02-23T04:17:12;6.70;1.00
20174;DHT22;10246;50.620;7.232;2024-02-23T04:19:40;6.70;1.00
20174;DHT22;10246;50.620;7.232;2024-02-23T04:22:08;6.70;1.00
20174;DHT22;10246;50.620;7.232;2024-02-23T04:24:36;6.60;1.00
20174;DHT22;10246;50.620;7.232;2024-02-23T04:27:04;6.60;1.00
20174;DHT22;10246;50.620;7.232;2024-02-23T04:29:32;6.60;1.00
20174;DHT22;10246;50.620;7.232;2024-02-23T04:31:59;6.60;1.00
20174;DHT22;10246;50.620;7.232;2024-02-23T04:34:27;6.60;1.00
20174;DHT22;10246;50.620;7.232;2024-02-23T04:36:53;6.60;1.00
20174;DHT22;10246;50.620;7.232;2024-02-23T04:39:20;6.60;1.00
20174;DHT22;10246;50.620;7.232;2024-02-23T04:41:47;6.60;1.00
20174;DHT22;10246;50.620;7.232;2024-02-23T04:44:14;6.60;1.00
20174;DHT22;10246;50.620;7.232;2024-02-23T04:46:42;6.60;1.00
20174;DHT22;10246;50.620;7.232;2024-02-23T04:49:10;6.60;1.00
20174;DHT22;10246;50.620;7.232;2024-02-23T04:51:38;6.60;1.00
20174;DHT22;10246;50.620;7.232;2024-02-23T04:54:05;6.60;1.00
20174;DHT22;10246;50.620;7.232;2024-02-23T04:56:31;6.60;1.00
20174;DHT22;10246;50.620;7.232;2024-02-23T04:58:58;6.60;1.00
20174;DHT22;10246;50.620;7.232;2024-02-23T05:01:25;6.60;1.00
20174;DHT22;10246;50.620;7.232;2024-02-23T05:03:53;6.50;1.00
20174;DHT22;10246;50.620;7.232;2024-02-23T05:06:20;6.50;1.00
20174;DHT22;10246;50.620;7.232;2024-02-23T05:08:46;6.50;1.00
20174;DHT22;10246;50.620;7.232;2024-02-23T05:11:14;6.50;1.00
20174;DHT22;10246;50.620;7.232;2024-02-23T05:13:41;6.50;1.00
20174;DHT22;10246;50.620;7.232;2024-02-23T05:16:08;6.50;1.00
20174;DHT22;10246;50.620;7.232;2024-02-23T05:18:34;6.40;1.00
20174;DHT22;10246;50.620;7.232;2024-02-23T05:21:03;6.50;1.00
20174;DHT22;10246;50.620;7.232;2024-02-23T05:23:30;6.50;1.00
20174;DHT22;10246;50.620;7.232;2024-02-23T05:25:57;6.50;1.00
20174;DHT22;10246;50.620;7.232;2024-02-23T05:28:24;6.50;1.00
20174;DHT22;10246;50.620;7.232;2024-02-23T05:30:51;6.50;1.00
20174;DHT22;10246;50.620;7.232;2024-02-23T05:33:18;6.50;1.00
20174;DHT22;10246;50.620;7.232;2024-02-23T05:35:46;6.60;1.00
20174;DHT22;10246;50.620;7.232;2024-02-23T05:38:15;6.60;1.00
20174;DHT22;10246;50.620;7.232;2024-02-23T05:40:42;6.60;1.00
20174;DHT22;10246;50.620;7.232;2024-02-23T05:43:09;6.60;1.00
20174;DHT22;10246;50.620;7.232;2024-02-23T05:45:35;6.60;1.00
20174;DHT22;10246;50.620;7.232;2024-02-23T05:48:03;6.70;1.00
20174;DHT22;10246;50.620;7.232;2024-02-23T05:50:30;6.70;1.00
20174;DHT22;10246;50.620;7.232;2024-02-23T05:52:57;6.70;1.00
20174;DHT22;10246;50.620;7.232;2024-02-23T05:55:25;6.80;1.00
20174;DHT22;10246;50.620;7.232;2024-02-23T05:57:52;6.70;1.00
20174;DHT22;10246;50.620;7.232;2024-02-23T06:00:19;6.70;1.00
20174;DHT22;10246;50.620;7.232;2024-02-23T06:02:47;6.70;1.00
20174;DHT22;10246;50.620;7.232;2024-02-23T06:05:13;6.70;1.00
20174;DHT22;10246;50.620;7.232;2024-02-23T06:07:41;6.70;1.00
20174;DHT22;10246;50.620;7.232;2024-02-23T06:10:08;6.80;1.00
20174;DHT22;10246;50.620;7.232;2024-02-23T06:12:37;6.70;1.00
20174;DHT22;10246;50.620;7.232;2024-02-23T06:15:05;6.70;1.00
20174;DHT22;10246;50.620;7.232;2024-02-23T06:17:32;6.80;1.00
20174;DHT22;10246;50.620;7.232;2024-02-23T06:19:58;6.80;1.00
20174;DHT22;10246;50.620;7.232;2024-02-23T06:22:25;6.80;1.00
20174;DHT22;10246;50.620;7.232;2024-02-23T06:24:52;6.90;1.00
20174;DHT22;10246;50.620;7.232;2024-02-23T06:27:19;6.90;1.00
20174;DHT22;10246;50.620;7.232;2024-02-23T06:29:48;6.90;1.00
20174;DHT22;10246;50.620;7.232;2024-02-23T06:32:15;6.90;1.00
20174;DHT22;10246;50.620;7.232;2024-02-23T06:34:42;6.90;1.00
20174;DHT22;10246;50.620;7.232;2024-02-23T06:37:09;6.90;1.00
20174;DHT22;10246;50.620;7.232;2024-02-23T06:39:35;7.00;1.00
20174;DHT22;10246;50.620;7.232;2024-02-23T06:42:02;7.00;1.00
20174;DHT22;10246;50.620;7.232;2024-02-23T06:44:30;7.00;1.00
20174;DHT22;10246;50.620;7.232;2024-02-23T06:46:58;7.00;1.00
20174;DHT22;10246;50.620;7.232;2024-02-23T06:49:24;7.00;1.00
20174;DHT22;10246;50.620;7.232;2024-02-23T06:51:51;7.10;1.00
20174;DHT22;10246;50.620;7.232;2024-02-23T06:54:18;7.10;1.00
20174;DHT22;10246;50.620;7.232;2024-02-23T06:56:45;7.10;1.00
20174;DHT22;10246;50.620;7.232;2024-02-23T06:59:12;7.10;1.00
20174;DHT22;10246;50.620;7.232;2024-02-23T07:01:48;7.20;1.00
20174;DHT22;10246;50.620;7.232;2024-02-23T07:04:16;7.20;1.00
20174;DHT22;10246;50.620;7.232;2024-02-23T07:06:43;7.20;1.00
20174;DHT22;10246;50.620;7.232;2024-02-23T07:09:10;7.20;1.00
20174;DHT22;10246;50.620;7.232;2024-02-23T07:11:37;7.20;1.00
20174;DHT22;10246;50.620;7.232;2024-02-23T07:14:05;7.20;1.00
20174;DHT22;10246;50.620;7.232;2024-02-23T07:16:32;7.20;1.00
20174;DHT22;10246;50.620;7.232;2024-02-23T07:18:59;7.20;1.00
20174;DHT22;10246;50.620;7.232;2024-02-23T07:21:27;7.20;1.00
20174;DHT22;10246;50.620;7.232;2024-02-23T07:23:54;7.20;1.00
20174;DHT22;10246;50.620;7.232;2024-02-23T07:26:20;7.20;1.00
20174;DHT22;10246;50.620;7.232;2024-02-23T07:28:47;7.20;1.00
20174;DHT22;10246;50.620;7.232;2024-02-23T07:31:14;7.20;1.00
20174;DHT22;10246;50.620;7.232;2024-02-23T07:33:42;7.30;1.00
20174;DHT22;10246;50.620;7.232;2024-02-23T07:36:13;7.30;1.00
20174;DHT22;10246;50.620;7.232;2024-02-23T07:38:42;7.30;1.00
20174;DHT22;10246;50.620;7.232;2024-02-23T07:41:10;7.30;1.00
20174;DHT22;10246;50.620;7.232;2024-02-23T07:43:36;7.30;1.00
20174;DHT22;10246;50.620;7.232;2024-02-23T07:46:03;7.30;1.00
20174;DHT22;10246;50.620;7.232;2024-02-23T07:48:34;7.40;1.00
20174;DHT22;10246;50.620;7.232;2024-02-23T07:51:00;7.40;1.00
20174;DHT22;10246;50.620;7.232;2024-02-23T07:53:27;7.40;1.00
20174;DHT22;10246;50.620;7.232;2024-02-23T07:55:55;7.40;1.00
20174;DHT22;10246;50.620;7.232;2024-02-23T07:58:24;7.40;1.00
20174;DHT22;10246;50.620;7.232;2024-02-23T08:00:51;7.40;1.00
20174;DHT22;10246;50.620;7.232;2024-02-23T08:03:18;7.40;1.00
20174;DHT22;10246;50.620;7.232;2024-02-23T08:05:45;7.40;1.00
20174;DHT22;10246;50.620;7.232;2024-02-23T08:08:12;7.40;1.00
20174;DHT22;10246;50.620;7.232;2024-02-23T08:10:39;7.40;1.00
20174;DHT22;10246;50.620;7.232;2024-02-23T08:13:07;7.40;1.00
20174;DHT22;10246;50.620;7.232;2024-02-23T08:15:35;7.50;1.00
20174;DHT22;10246;50.620;7.232;2024-02-23T08:18:02;7.50;1.00
20174;DHT22;10246;50.620;7.232;2024-02-23T08:20:29;7.60;1.00
20174;DHT22;10246;50.620;7.232;2024-02-23T08:22:56;7.60;1.00
20174;DHT22;10246;50.620;7.232;2024-02-23T08:25:23;7.60;1.00
20174;DHT22;10246;50.620;7.232;2024-02-23T08:27:49;7.60;1.00
20174;DHT22;10246;50.620;7.232;2024-02-23T08:30:17;7.70;1.00
20174;DHT22;10246;50.620;7.232;2024-02-23T08:32:45;7.70;1.00
20174;DHT22;10246;50.620;7.232;2024-02-23T08:35:12;7.80;1.00
20174;DHT22;10246;50.620;7.232;2024-02-23T08:37:40;7.80;1.00
20174;DHT22;10246;50.620;7.232;2024-02-23T08:40:08;7.90;1.00
20174;DHT22;10246;50.620;7.232;2024-02-23T08:42:35;7.90;1.00
20174;DHT22;10246;50.620;7.232;2024-02-23T08:45:02;7.90;1.00
20174;DHT22;10246;50.620;7.232;2024-02-23T08:47:31;7.90;1.00
20174;DHT22;10246;50.620;7.232;2024-02-23T08:50:01;7.90;1.00
20174;DHT22;10246;50.620;7.232;2024-02-23T08:52:26;8.00;1.00
20174;DHT22;10246;50.620;7.232;2024-02-23T08:54:53;8.00;1.00
20174;DHT22;10246;50.620;7.232;2024-02-23T08:57:20;8.10;1.00
20174;DHT22;10246;50.620;7.232;2024-02-23T08:59:48;8.00;1.00
20174;DHT22;10246;50.620;7.232;2024-02-23T09:02:15;8.00;1.00
20174;DHT22;10246;50.620;7.232;2024-02-23T09:04:43;8.00;1.00
20174;DHT22;10246;50.620;7.232;2024-02-23T09:07:23;8.00;1.00
20174;DHT22;10246;50.620;7.232;2024-02-23T09:10:00;7.90;1.00
20174;DHT22;10246;50.620;7.232;2024-02-23T09:12:41;8.00;1.00
20174;DHT22;10246;50.620;7.232;2024-02-23T09:15:09;8.00;1.00
20174;DHT22;10246;50.620;7.232;2024-02-23T09:17:58;8.10;1.00
20174;DHT22;10246;50.620;7.232;2024-02-23T09:20:28;8.10;1.00
20174;DHT22;10246;50.620;7.232;2024-02-23T09:22:55;8.20;1.00
20174;DHT22;10246;50.620;7.232;2024-02-23T09:25:25;8.20;1.00
20174;DHT22;10246;50.620;7.232;2024-02-23T09:28:05;8.20;1.00
20174;DHT22;10246;50.620;7.232;2024-02-23T09:30:32;8.20;1.00
20174;DHT22;10246;50.620;7.232;2024-02-23T09:33:01;8.20;1.00
20174;DHT22;10246;50.620;7.232;2024-02-23T09:35:40;8.20;1.00
20174;DHT22;10246;50.620;7.232;2024-02-23T09:38:13;8.20;1.00
20174;DHT22;10246;50.620;7.232;2024-02-23T09:40:40;8.30;1.00
20174;DHT22;10246;50.620;7.232;2024-02-23T09:43:08;8.40;1.00
20174;DHT22;10246;50.620;7.232;2024-02-23T09:45:38;8.40;1.00
20174;DHT22;10246;50.620;7.232;2024-02-23T09:48:07;8.50;1.00
20174;DHT22;10246;50.620;7.232;2024-02-23T09:50:35;8.50;1.00
20174;DHT22;10246;50.620;7.232;2024-02-23T09:53:04;8.50;1.00
20174;DHT22;10246;50.620;7.232;2024-02-23T09:55:33;8.50;1.00
20174;DHT22;10246;50.620;7.232;2024-02-23T09:58:08;8.50;1.00
20174;DHT22;10246;50.620;7.232;2024-02-23T10:00:38;8.50;1.00
20174;DHT22;10246;50.620;7.232;2024-02-23T10:03:06;8.50;1.00
20174;DHT22;10246;50.620;7.232;2024-02-23T10:05:34;8.60;1.00
20174;DHT22;10246;50.620;7.232;2024-02-23T10:08:01;8.70;1.00
20174;DHT22;10246;50.620;7.232;2024-02-23T10:10:30;8.80;1.00
20174;DHT22;10246;50.620;7.232;2024-02-23T10:13:04;8.90;1.00
20174;DHT22;10246;50.620;7.232;2024-02-23T10:15:33;8.80;1.00
20174;DHT22;10246;50.620;7.232;2024-02-23T10:18:11;8.90;1.00
20174;DHT22;10246;50.620;7.232;2024-02-23T10:20:56;8.80;1.00
20174;DHT22;10246;50.620;7.232;2024-02-23T10:23:23;8.80;1.00
20174;DHT22;10246;50.620;7.232;2024-02-23T10:25:53;8.80;1.00
20174;DHT22;10246;50.620;7.232;2024-02-23T10:28:25;8.80;1.00
20174;DHT22;10246;50.620;7.232;2024-02-23T10:30:54;8.70;1.00
20174;DHT22;10246;50.620;7.232;2024-02-23T10:33:23;8.60;1.00
20174;DHT22;10246;50.620;7.232;2024-02-23T10:35:55;8.60;1.00
20174;DHT22;10246;50.620;7.232;2024-02-23T10:38:26;8.60;1.00
20174;DHT22;10246;50.620;7.232;2024-02-23T10:40:55;8.60;1.00
20174;DHT22;10246;50.620;7.232;2024-02-23T10:43:39;8.70;1.00
20174;DHT22;10246;50.620;7.232;2024-02-23T10:46:11;8.90;1.00
20174;DHT22;10246;50.620;7.232;2024-02-23T10:48:41;9.10;1.00
20174;DHT22;10246;50.620;7.232;2024-02-23T10:51:13;9.30;1.00
20174;DHT22;10246;50.620;7.232;2024-02-23T10:53:51;9.30;1.00
20174;DHT22;10246;50.620;7.232;2024-02-23T10:56:26;9.40;1.00
20174;DHT22;10246;50.620;7.232;2024-02-23T10:58:54;9.50;1.00
20174;DHT22;10246;50.620;7.232;2024-02-23T11:01:32;9.50;1.00
20174;DHT22;10246;50.620;7.232;2024-02-23T11:04:12;9.50;1.00
20174;DHT22;10246;50.620;7.232;2024-02-23T11:06:42;9.50;1.00
20174;DHT22;10246;50.620;7.232;2024-02-23T11:09:12;9.40;1.00
20174;DHT22;10246;50.620;7.232;2024-02-23T11:11:39;9.50;1.00
20174;DHT22;10246;50.620;7.232;2024-02-23T11:14:07;9.60;1.00
20174;DHT22;10246;50.620;7.232;2024-02-23T11:16:39;9.80;1.00
20174;DHT22;10246;50.620;7.232;2024-02-23T11:19:08;9.90;1.00
20174;DHT22;10246;50.620;7.232;2024-02-23T11:21:35;9.90;1.00
20174;DHT22;10246;50.620;7.232;2024-02-23T11:24:03;9.80;1.00
20174;DHT22;10246;50.620;7.232;2024-02-23T11:26:32;9.80;1.00
20174;DHT22;10246;50.620;7.232;2024-02-23T11:29:10;9.90;1.00
20174;DHT22;10246;50.620;7.232;2024-02-23T11:31:44;10.10;1.00
20174;DHT22;10246;50.620;7.232;2024-02-23T11:34:11;10.30;1.00
20174;DHT22;10246;50.620;7.232;2024-02-23T11:36:38;10.20;1.00
20174;DHT22;10246;50.620;7.232;2024-02-23T11:39:05;10.20;1.00
20174;DHT22;10246;50.620;7.232;2024-02-23T11:41:34;10.30;1.00
20174;DHT22;10246;50.620;7.232;2024-02-23T11:44:02;10.20;1.00
20174;DHT22;10246;50.620;7.232;2024-02-23T11:46:29;10.00;1.00
20174;DHT22;10246;50.620;7.232;2024-02-23T11:48:55;10.00;1.00
20174;DHT22;10246;50.620;7.232;2024-02-23T11:51:23;9.90;1.00
20174;DHT22;10246;50.620;7.232;2024-02-23T11:53:52;9.90;1.00
20174;DHT22;10246;50.620;7.232;2024-02-23T11:56:22;10.10;1.00
20174;DHT22;10246;50.620;7.232;2024-02-23T11:58:50;10.10;1.00
20174;DHT22;10246;50.620;7.232;2024-02-23T12:01:17;10.10;1.00
20174;DHT22;10246;50.620;7.232;2024-02-23T12:03:44;10.10;1.00
20174;DHT22;10246;50.620;7.232;2024-02-23T12:06:11;10.20;1.00
20174;DHT22;10246;50.620;7.232;2024-02-23T12:08:41;10.10;1.00
20174;DHT22;10246;50.620;7.232;2024-02-23T12:11:09;10.00;1.00
20174;DHT22;10246;50.620;7.232;2024-02-23T12:13:36;9.90;1.00
20174;DHT22;10246;50.620;7.232;2024-02-23T12:16:07;9.90;1.00
20174;DHT22;10246;50.620;7.232;2024-02-23T12:18:34;9.90;1.00
20174;DHT22;10246;50.620;7.232;2024-02-23T12:21:02;9.90;1.00
20174;DHT22;10246;50.620;7.232;2024-02-23T12:23:39;9.90;1.00
20174;DHT22;10246;50.620;7.232;2024-02-23T12:26:05;9.90;1.00
20174;DHT22;10246;50.620;7.232;2024-02-23T12:28:33;9.90;1.00
20174;DHT22;10246;50.620;7.232;2024-02-23T12:31:00;9.90;1.00
20174;DHT22;10246;50.620;7.232;2024-02-23T12:33:28;9.90;1.00
20174;DHT22;10246;50.620;7.232;2024-02-23T12:35:56;9.80;1.00
20174;DHT22;10246;50.620;7.232;2024-02-23T12:38:22;9.80;1.00
20174;DHT22;10246;50.620;7.232;2024-02-23T12:40:49;9.90;1.00
20174;DHT22;10246;50.620;7.232;2024-02-23T12:43:16;9.80;1.00
20174;DHT22;10246;50.620;7.232;2024-02-23T12:45:44;9.70;1.00
20174;DHT22;10246;50.620;7.232;2024-02-23T12:48:14;9.80;1.00
20174;DHT22;10246;50.620;7.232;2024-02-23T12:50:42;9.60;1.00
20174;DHT22;10246;50.620;7.232;2024-02-23T12:53:10;9.60;1.00
20174;DHT22;10246;50.620;7.232;2024-02-23T12:55:39;9.70;1.00
20174;DHT22;10246;50.620;7.232;2024-02-23T12:58:06;9.90;1.00
20174;DHT22;10246;50.620;7.232;2024-02-23T13:00:33;10.10;1.00
20174;DHT22;10246;50.620;7.232;2024-02-23T13:03:00;10.20;1.00
20174;DHT22;10246;50.620;7.232;2024-02-23T13:05:26;10.30;1.00
20174;DHT22;10246;50.620;7.232;2024-02-23T13:07:54;10.30;1.00
20174;DHT22;10246;50.620;7.232;2024-02-23T13:10:21;10.30;1.00
20174;DHT22;10246;50.620;7.232;2024-02-23T13:12:48;10.30;1.00
20174;DHT22;10246;50.620;7.232;2024-02-23T13:15:15;10.30;1.00
20174;DHT22;10246;50.620;7.232;2024-02-23T13:17:42;10.30;1.00
20174;DHT22;10246;50.620;7.232;2024-02-23T13:20:10;10.30;1.00
20174;DHT22;10246;50.620;7.232;2024-02-23T13:22:38;10.30;1.00
20174;DHT22;10246;50.620;7.232;2024-02-23T13:25:06;10.20;1.00
20174;DHT22;10246;50.620;7.232;2024-02-23T13:27:33;10.30;1.00
20174;DHT22;10246;50.620;7.232;2024-02-23T13:30:00;10.20;1.00
20174;DHT22;10246;50.620;7.232;2024-02-23T13:32:27;10.20;1.00
20174;DHT22;10246;50.620;7.232;2024-02-23T13:34:53;10.20;1.00
20174;DHT22;10246;50.620;7.232;2024-02-23T13:37:20;10.20;1.00
20174;DHT22;10246;50.620;7.232;2024-02-23T13:39:47;10.20;1.00
20174;DHT22;10246;50.620;7.232;2024-02-23T13:42:15;10.10;1.00
20174;DHT22;10246;50.620;7.232;2024-02-23T13:44:42;10.20;1.00
20174;DHT22;10246;50.620;7.232;2024-02-23T13:47:11;10.20;1.00
20174;DHT22;10246;50.620;7.232;2024-02-23T13:49:38;10.20;1.00
20174;DHT22;10246;50.620;7.232;2024-02-23T13:52:05;10.30;1.00
20174;DHT22;10246;50.620;7.232;2024-02-23T13:54:32;10.40;1.00
20174;DHT22;10246;50.620;7.232;2024-02-23T13:56:59;10.40;1.00
20174;DHT22;10246;50.620;7.232;2024-02-23T13:59:27;10.40;1.00
20174;DHT22;10246;50.620;7.232;2024-02-23T14:01:54;10.40;1.00
20174;DHT22;10246;50.620;7.232;2024-02-23T14:04:21;10.40;1.00
20174;DHT22;10246;50.620;7.232;2024-02-23T14:06:47;10.30;1.00
20174;DHT22;10246;50.620;7.232;2024-02-23T14:09:14;10.20;1.00
20174;DHT22;10246;50.620;7.232;2024-02-23T14:11:41;10.20;1.00
20174;DHT22;10246;50.620;7.232;2024-02-23T14:14:08;10.20;1.00
20174;DHT22;10246;50.620;7.232;2024-02-23T14:16:36;10.10;1.00
20174;DHT22;10246;50.620;7.232;2024-02-23T14:19:03;10.10;1.00
20174;DHT22;10246;50.620;7.232;2024-02-23T14:21:29;10.00;1.00
20174;DHT22;10246;50.620;7.232;2024-02-23T14:23:56;10.00;1.00
20174;DHT22;10246;50.620;7.232;2024-02-23T14:26:23;10.00;1.00
20174;DHT22;10246;50.620;7.232;2024-02-23T14:28:50;10.00;1.00
20174;DHT22;10246;50.620;7.232;2024-02-23T14:31:16;10.00;1.00
20174;DHT22;10246;50.620;7.232;2024-02-23T14:33:44;10.00;1.00
20174;DHT22;10246;50.620;7.232;2024-02-23T14:36:11;10.00;1.00
20174;DHT22;10246;50.620;7.232;2024-02-23T14:38:38;10.10;1.00
20174;DHT22;10246;50.620;7.232;2024-02-23T14:41:05;10.00;1.00
20174;DHT22;10246;50.620;7.232;2024-02-23T14:43:35;9.90;1.00
20174;DHT22;10246;50.620;7.232;2024-02-23T14:46:02;9.90;1.00
20174;DHT22;10246;50.620;7.232;2024-02-23T14:48:29;9.80;1.00
20174;DHT22;10246;50.620;7.232;2024-02-23T14:50:57;9.80;1.00
20174;DHT22;10246;50.620;7.232;2024-02-23T14:53:24;9.80;1.00
20174;DHT22;10246;50.620;7.232;2024-02-23T14:55:51;9.80;1.00
20174;DHT22;10246;50.620;7.232;2024-02-23T14:58:19;9.90;1.00
20174;DHT22;10246;50.620;7.232;2024-02-23T15:00:45;9.90;1.00
20174;DHT22;10246;50.620;7.232;2024-02-23T15:03:12;9.90;1.00
20174;DHT22;10246;50.620;7.232;2024-02-23T15:05:39;9.90;1.00
20174;DHT22;10246;50.620;7.232;2024-02-23T15:08:08;9.80;1.00
20174;DHT22;10246;50.620;7.232;2024-02-23T15:10:34;9.70;1.00
20174;DHT22;10246;50.620;7.232;2024-02-23T15:13:01;9.80;1.00
20174;DHT22;10246;50.620;7.232;2024-02-23T15:15:28;9.80;1.00
20174;DHT22;10246;50.620;7.232;2024-02-23T15:17:55;9.90;1.00
20174;DHT22;10246;50.620;7.232;2024-02-23T15:20:22;9.80;1.00
20174;DHT22;10246;50.620;7.232;2024-02-23T15:22:49;9.80;1.00
20174;DHT22;10246;50.620;7.232;2024-02-23T15:25:17;9.80;1.00
20174;DHT22;10246;50.620;7.232;2024-02-23T15:27:43;9.80;1.00
20174;DHT22;10246;50.620;7.232;2024-02-23T15:30:10;9.80;1.00
20174;DHT22;10246;50.620;7.232;2024-02-23T15:32:37;9.80;1.00
20174;DHT22;10246;50.620;7.232;2024-02-23T15:35:05;9.70;1.00
20174;DHT22;10246;50.620;7.232;2024-02-23T15:37:32;9.70;1.00
20174;DHT22;10246;50.620;7.232;2024-02-23T15:39:59;9.70;1.00
20174;DHT22;10246;50.620;7.232;2024-02-23T15:42:27;9.60;1.00
20174;DHT22;10246;50.620;7.232;2024-02-23T15:44:54;9.60;1.00
20174;DHT22;10246;50.620;7.232;2024-02-23T15:47:22;9.60;1.00
20174;DHT22;10246;50.620;7.232;2024-02-23T15:49:49;9.60;1.00
20174;DHT22;10246;50.620;7.232;2024-02-23T15:52:16;9.60;1.00
20174;DHT22;10246;50.620;7.232;2024-02-23T15:54:43;9.50;1.00
20174;DHT22;10246;50.620;7.232;2024-02-23T15:57:10;9.50;1.00
20174;DHT22;10246;50.620;7.232;2024-02-23T15:59:39;9.50;1.00
20174;DHT22;10246;50.620;7.232;2024-02-23T16:02:06;9.50;1.00
20174;DHT22;10246;50.620;7.232;2024-02-23T16:04:33;9.60;1.00